createdAt,value
2024-01-05T00:00:49.613Z,1.85
2024-01-05T00:02:51.493Z,1.65
2024-01-05T00:04:53.245Z,1.80
2024-01-05T00:06:55.029Z,2.50
2024-01-05T00:08:57.337Z,2.00
2024-01-05T00:10:59.139Z,2.17
2024-01-05T00:13:00.896Z,1.83
2024-01-05T00:15:02.667Z,1.70
2024-01-05T00:17:04.580Z,1.43
2024-01-05T00:19:07.196Z,2.17
2024-01-05T00:23:10.698Z,1.70
2024-01-05T00:25:12.673Z,2.10
2024-01-05T00:27:15.771Z,2.05
2024-01-05T00:29:17.552Z,1.80
2024-01-05T00:31:19.403Z,1.52
2024-01-05T00:33:21.524Z,1.73
2024-01-05T00:35:23.375Z,1.95
2024-01-05T00:37:25.274Z,1.98
2024-01-05T00:39:27.152Z,1.85
2024-01-05T00:41:28.968Z,1.67
2024-01-05T00:43:30.744Z,1.67
2024-01-05T00:45:32.694Z,1.90
2024-01-05T00:47:34.542Z,2.15
2024-01-05T00:49:36.545Z,1.63
2024-01-05T00:51:38.413Z,1.50
2024-01-05T00:53:40.487Z,1.75
2024-01-05T00:55:42.262Z,1.58
2024-01-05T00:57:44.193Z,1.60
2024-01-05T00:59:45.979Z,1.20
2024-01-05T01:01:48.046Z,1.90
2024-01-05T01:03:49.922Z,1.45
2024-01-05T01:05:51.751Z,1.38
2024-01-05T01:07:53.553Z,1.50
2024-01-05T01:09:55.288Z,1.80
2024-01-05T01:11:57.095Z,1.60
2024-01-05T01:13:58.919Z,1.55
2024-01-05T01:16:00.724Z,1.90
2024-01-05T01:18:03.494Z,1.60
2024-01-05T01:20:06.618Z,1.75
2024-01-05T01:22:08.470Z,1.38
2024-01-05T01:24:10.497Z,1.90
2024-01-05T01:26:12.305Z,1.67
2024-01-05T01:28:14.075Z,1.30
2024-01-05T01:30:16.100Z,1.60
2024-01-05T01:32:17.962Z,1.67
2024-01-05T01:34:19.887Z,1.75
2024-01-05T01:36:21.773Z,1.50
2024-01-05T01:38:23.566Z,1.67
2024-01-05T01:40:27.278Z,1.45
2024-01-05T01:42:29.304Z,1.50
2024-01-05T01:44:31.277Z,1.40
2024-01-05T01:46:34.766Z,2.10
2024-01-05T01:48:36.965Z,1.83
2024-01-05T01:50:38.871Z,1.75
2024-01-05T01:52:43.914Z,1.95
2024-01-05T01:54:46.105Z,1.73
2024-01-05T01:56:50.156Z,2.25
2024-01-05T01:58:52.574Z,1.98
2024-01-05T02:00:54.603Z,1.92
2024-01-05T02:02:57.121Z,2.38
2024-01-05T02:07:02.900Z,2.10
2024-01-05T02:11:07.466Z,1.40
2024-01-05T02:13:09.826Z,1.67
2024-01-05T02:15:11.699Z,1.63
2024-01-05T02:17:33.702Z,1.70
2024-01-05T02:19:35.605Z,1.63
2024-01-05T02:21:41.456Z,1.60
2024-01-05T02:23:43.343Z,1.55
2024-01-05T02:25:45.184Z,1.88
2024-01-05T02:27:46.926Z,1.75
2024-01-05T02:29:48.739Z,1.50
2024-01-05T02:31:50.989Z,1.45
2024-01-05T02:33:53.093Z,1.50
2024-01-05T02:35:54.976Z,1.60
2024-01-05T02:37:56.748Z,1.70
2024-01-05T02:39:58.486Z,1.80
2024-01-05T02:42:00.315Z,1.58
2024-01-05T02:44:02.065Z,1.65
2024-01-05T02:46:03.939Z,1.67
2024-01-05T02:48:06.837Z,1.40
2024-01-05T02:50:09.414Z,1.58
2024-01-05T02:52:11.273Z,1.55
2024-01-05T02:54:13.098Z,1.60
2024-01-05T02:56:22.348Z,1.60
2024-01-05T02:58:24.116Z,1.50
2024-01-05T03:00:25.973Z,1.70
2024-01-05T03:02:27.902Z,1.73
2024-01-05T03:04:29.691Z,1.90
2024-01-05T03:06:31.530Z,1.40
2024-01-05T03:08:33.287Z,1.45
2024-01-05T03:10:35.136Z,1.73
2024-01-05T03:12:36.891Z,1.60
2024-01-05T03:14:38.844Z,1.40
2024-01-05T03:16:41.348Z,1.48
2024-01-05T03:18:43.519Z,1.48
2024-01-05T03:20:45.380Z,1.50
2024-01-05T03:22:47.179Z,1.60
2024-01-05T03:24:48.916Z,1.30
2024-01-05T03:26:51.080Z,1.50
2024-01-05T03:28:52.808Z,1.73
2024-01-05T03:30:54.576Z,1.50
2024-01-05T03:32:56.605Z,1.60
2024-01-05T03:34:58.456Z,1.83
2024-01-05T03:37:00.222Z,1.42
2024-01-05T03:39:02.306Z,1.77
2024-01-05T03:41:04.875Z,1.50
2024-01-05T03:45:09.024Z,1.73
2024-01-05T03:49:12.525Z,1.50
2024-01-05T03:51:14.371Z,1.30
2024-01-05T03:53:16.637Z,1.70
2024-01-05T03:55:18.421Z,1.60
2024-01-05T03:57:22.299Z,1.35
2024-01-05T03:59:24.110Z,1.35
2024-01-05T04:01:25.950Z,1.63
2024-01-05T04:03:28.137Z,1.50
2024-01-05T04:05:30.308Z,1.73
2024-01-05T04:07:32.155Z,1.88
2024-01-05T04:09:33.975Z,1.60
2024-01-05T04:11:35.960Z,1.58
2024-01-05T04:13:37.747Z,1.42
2024-01-05T04:15:41.349Z,2.08
2024-01-05T04:17:43.304Z,1.52
2024-01-05T04:19:45.175Z,1.67
2024-01-05T04:21:46.996Z,1.88
2024-01-05T04:23:48.805Z,1.70
2024-01-05T04:25:50.589Z,1.70
2024-01-05T04:27:52.963Z,1.83
2024-01-05T04:29:54.773Z,1.63
2024-01-05T04:31:56.495Z,1.60
2024-01-05T04:33:58.418Z,1.77
2024-01-05T04:36:00.316Z,1.80
2024-01-05T04:38:02.198Z,1.60
2024-01-05T04:40:04.346Z,1.48
2024-01-05T04:42:06.197Z,1.50
2024-01-05T04:44:07.959Z,1.40
2024-01-05T04:46:10.089Z,1.60
2024-01-05T04:48:11.991Z,1.63
2024-01-05T04:50:13.946Z,1.60
2024-01-05T04:52:15.747Z,1.38
2024-01-05T04:54:17.544Z,1.75
2024-01-05T04:56:19.376Z,1.45
2024-01-05T04:58:21.652Z,1.30
2024-01-05T05:00:23.448Z,1.83
2024-01-05T05:02:25.261Z,1.77
2024-01-05T05:04:27.310Z,1.83
2024-01-05T05:06:29.129Z,1.85
2024-01-05T05:08:30.925Z,2.00
2024-01-05T05:10:32.729Z,1.80
2024-01-05T05:12:34.802Z,2.40
2024-01-05T05:14:36.664Z,2.10
2024-01-05T05:16:38.388Z,2.05
2024-01-05T05:18:40.273Z,2.30
2024-01-05T05:20:42.217Z,2.30
2024-01-05T05:22:44.132Z,2.20
2024-01-05T05:24:45.938Z,2.08
2024-01-05T05:26:47.673Z,2.00
2024-01-05T05:28:49.438Z,1.98
2024-01-05T05:30:52.069Z,2.00
2024-01-05T05:32:53.927Z,1.80
2024-01-05T05:34:56.184Z,2.00
2024-01-05T05:36:57.934Z,1.80
2024-01-05T05:38:59.909Z,2.30
2024-01-05T05:41:01.740Z,1.95
2024-01-05T05:43:03.900Z,1.95
2024-01-05T05:45:06.081Z,2.05
2024-01-05T05:47:07.905Z,2.03
2024-01-05T05:49:11.346Z,2.13
2024-01-05T05:51:13.713Z,1.90
2024-01-05T05:53:15.575Z,1.70
2024-01-05T05:55:17.317Z,2.03
2024-01-05T05:57:19.178Z,1.88
2024-01-05T05:59:20.970Z,2.20
2024-01-05T06:01:24.590Z,2.10
2024-01-05T06:03:26.494Z,1.70
2024-01-05T06:05:28.307Z,1.70
2024-01-05T06:07:30.162Z,1.98
2024-01-05T06:09:32.023Z,1.90
2024-01-05T06:11:34.268Z,2.00
2024-01-05T06:13:38.133Z,2.00
2024-01-05T06:15:40.053Z,1.90
2024-01-05T06:17:41.955Z,2.40
2024-01-05T06:19:45.116Z,2.30
2024-01-05T06:21:47.690Z,2.20
2024-01-05T06:23:50.119Z,2.05
2024-01-05T06:25:51.847Z,1.92
2024-01-05T06:27:53.737Z,2.00
2024-01-05T06:29:56.592Z,2.30
2024-01-05T06:31:59.138Z,2.28
2024-01-05T06:36:06.422Z,2.20
2024-01-05T06:38:08.386Z,2.00
2024-01-05T06:40:10.489Z,2.05
2024-01-05T06:42:12.333Z,1.67
2024-01-05T06:44:14.246Z,2.20
2024-01-05T06:46:16.004Z,2.08
2024-01-05T06:48:17.948Z,2.10
2024-01-05T06:50:19.969Z,2.22
2024-01-05T06:52:21.913Z,2.53
2024-01-05T06:54:23.875Z,1.90
2024-01-05T06:56:28.621Z,2.10
2024-01-05T06:58:30.570Z,1.90
2024-01-05T07:00:32.448Z,1.98
2024-01-05T07:02:34.240Z,2.13
2024-01-05T07:04:36.060Z,2.13
2024-01-05T07:06:41.803Z,2.08
2024-01-05T07:08:43.521Z,2.42
2024-01-05T07:10:45.549Z,1.80
2024-01-05T07:12:47.363Z,2.25
2024-01-05T07:14:49.140Z,2.90
2024-01-05T07:16:50.932Z,2.35
2024-01-05T07:18:52.804Z,1.90
2024-01-05T07:20:54.846Z,2.20
2024-01-05T07:22:56.655Z,2.22
2024-01-05T07:24:58.921Z,2.42
2024-01-05T07:27:00.724Z,2.40
2024-01-05T07:29:02.968Z,1.85
2024-01-05T07:31:08.015Z,2.00
2024-01-05T07:33:10.159Z,2.08
2024-01-05T07:35:12.331Z,1.83
2024-01-05T07:37:14.238Z,1.88
2024-01-05T07:39:16.426Z,1.85
2024-01-05T07:41:19.219Z,2.13
2024-01-05T07:43:20.993Z,1.98
2024-01-05T07:45:22.826Z,1.85
2024-01-05T07:47:24.950Z,1.88
2024-01-05T07:49:27.323Z,1.80
2024-01-05T07:51:29.261Z,2.10
2024-01-05T07:53:31.131Z,2.10
2024-01-05T07:55:32.953Z,1.75
2024-01-05T07:57:34.814Z,1.75
2024-01-05T07:59:37.010Z,1.88
2024-01-05T08:01:38.892Z,1.80
2024-01-05T08:03:40.892Z,1.83
2024-01-05T08:05:46.166Z,2.00
2024-01-05T08:07:49.160Z,1.90
2024-01-05T08:09:54.391Z,2.28
2024-01-05T08:11:56.297Z,2.20
2024-01-05T08:13:58.125Z,2.05
2024-01-05T08:15:59.857Z,2.20
2024-01-05T08:18:04.009Z,2.15
2024-01-05T08:20:06.935Z,2.22
2024-01-05T08:22:08.669Z,1.95
2024-01-05T08:24:10.482Z,1.73
2024-01-05T08:26:18.548Z,1.65
2024-01-05T08:28:20.371Z,1.75
2024-01-05T08:30:22.384Z,1.83
2024-01-05T08:32:24.265Z,2.17
2024-01-05T08:34:26.575Z,2.00
2024-01-05T08:36:29.233Z,1.77
2024-01-05T08:40:33.160Z,1.50
2024-01-05T08:42:34.949Z,2.00
2024-01-05T08:44:36.954Z,1.70
2024-01-05T08:46:38.800Z,2.00
2024-01-05T08:48:41.152Z,1.77
2024-01-05T08:50:43.003Z,1.98
2024-01-05T08:52:45.630Z,2.33
2024-01-05T08:56:52.468Z,2.50
2024-01-05T08:58:54.356Z,2.30
2024-01-05T09:00:56.240Z,2.95
2024-01-05T09:02:58.302Z,2.83
2024-01-05T09:05:00.286Z,2.50
2024-01-05T09:07:02.154Z,2.05
2024-01-05T09:09:04.406Z,2.25
2024-01-05T09:11:06.209Z,2.33
2024-01-05T09:13:08.141Z,1.85
2024-01-05T09:15:10.172Z,1.70
2024-01-05T09:17:12.082Z,1.80
2024-01-05T09:19:15.163Z,2.00
2024-01-05T09:21:17.253Z,2.47
2024-01-05T09:23:19.024Z,1.92
2024-01-05T09:25:20.778Z,1.73
2024-01-05T09:27:23.476Z,2.23
2024-01-05T09:29:25.276Z,1.83
2024-01-05T09:31:29.228Z,1.90
2024-01-05T09:33:31.490Z,1.77
2024-01-05T09:35:33.566Z,1.80
2024-01-05T09:37:36.469Z,1.98
2024-01-05T09:39:38.254Z,1.77
2024-01-05T09:41:44.650Z,1.58
2024-01-05T09:43:49.321Z,1.65
2024-01-05T09:45:52.141Z,1.40
2024-01-05T09:47:58.984Z,1.90
2024-01-05T09:50:06.088Z,2.47
2024-01-05T09:52:08.357Z,2.60
2024-01-05T09:54:10.145Z,1.90
2024-01-05T09:56:12.416Z,1.98
2024-01-05T09:58:18.012Z,2.25
2024-01-05T10:00:21.218Z,2.03
2024-01-05T10:02:30.435Z,1.65
2024-01-05T10:04:33.514Z,1.67
2024-01-05T10:06:35.360Z,1.45
2024-01-05T10:08:37.220Z,1.83
2024-01-05T10:10:48.152Z,2.10
2024-01-05T10:12:50.168Z,2.08
2024-01-05T10:14:53.334Z,1.80
2024-01-05T10:17:11.841Z,1.90
2024-01-05T10:19:14.896Z,1.95
2024-01-05T10:21:17.564Z,1.90
2024-01-05T10:23:19.953Z,1.83
2024-01-05T10:25:27.445Z,1.60
2024-01-05T10:27:29.255Z,1.70
2024-01-05T10:29:35.289Z,1.83
2024-01-05T10:31:37.155Z,1.92
2024-01-05T10:33:52.687Z,1.70
2024-01-05T10:35:54.617Z,1.67
2024-01-05T10:38:04.889Z,1.65
2024-01-05T10:40:07.456Z,1.40
2024-01-05T10:42:29.128Z,1.67
2024-01-05T10:44:31.564Z,1.60
2024-01-05T10:46:33.796Z,1.70
2024-01-05T10:48:36.860Z,2.25
2024-01-05T10:50:39.826Z,2.70
2024-01-05T10:52:45.391Z,2.90
2024-01-05T10:54:49.081Z,2.83
2024-01-05T10:56:56.845Z,3.65
2024-01-05T10:58:58.831Z,3.80
2024-01-05T11:01:02.272Z,3.90
2024-01-05T11:03:35.967Z,3.75
2024-01-05T11:07:43.349Z,3.88
2024-01-05T11:10:07.719Z,2.90
2024-01-05T11:12:28.975Z,2.55
2024-01-05T11:14:43.606Z,3.28
2024-01-05T11:17:03.886Z,3.58
2024-01-05T11:19:26.816Z,3.72
2024-01-05T11:21:55.737Z,4.13
2024-01-05T11:23:58.057Z,3.35
2024-01-05T11:25:59.839Z,2.90
2024-01-05T11:28:03.161Z,3.47
2024-01-05T11:30:05.913Z,2.78
2024-01-05T11:32:07.747Z,3.35
2024-01-05T11:34:09.797Z,3.35
2024-01-05T11:36:13.860Z,3.10
2024-01-05T11:38:29.987Z,2.47
2024-01-05T11:40:33.191Z,2.42
2024-01-05T11:42:35.196Z,2.30
2024-01-05T11:44:37.713Z,2.10
2024-01-05T11:46:53.090Z,2.03
2024-01-05T11:48:55.052Z,2.28
2024-01-05T11:50:58.582Z,2.38
2024-01-05T11:53:20.545Z,2.28
2024-01-05T11:55:22.369Z,2.50
2024-01-05T11:57:24.482Z,2.20
2024-01-05T11:59:26.341Z,1.85
2024-01-05T12:01:28.287Z,1.70
2024-01-05T12:03:31.624Z,1.83
2024-01-05T12:05:33.740Z,2.40
2024-01-05T12:07:35.638Z,2.00
2024-01-05T12:09:37.447Z,2.25
2024-01-05T12:11:39.307Z,2.10
2024-01-05T12:13:41.166Z,2.10
2024-01-05T12:15:50.200Z,2.37
2024-01-05T12:18:19.466Z,2.50
2024-01-05T12:20:29.447Z,3.05
2024-01-05T12:22:31.237Z,2.77
2024-01-05T12:24:33.037Z,2.90
2024-01-05T12:26:35.546Z,2.40
2024-01-05T12:28:39.542Z,2.40
2024-01-05T12:30:42.163Z,2.53
2024-01-05T12:32:44.889Z,1.98
2024-01-05T12:36:48.697Z,1.85
2024-01-05T12:38:50.499Z,2.25
2024-01-05T12:41:15.437Z,2.10
2024-01-05T12:43:19.872Z,2.20
2024-01-05T12:45:25.451Z,1.98
2024-01-05T12:47:30.380Z,2.08
2024-01-05T12:49:36.954Z,1.90
2024-01-05T12:51:48.634Z,1.70
2024-01-05T12:54:04.862Z,1.90
2024-01-05T12:56:18.623Z,2.15
2024-01-05T12:58:20.430Z,1.83
2024-01-05T13:00:23.592Z,2.03
2024-01-05T13:02:25.597Z,1.65
2024-01-05T13:04:39.843Z,1.83
2024-01-05T13:06:45.218Z,1.67
2024-01-05T13:08:47.497Z,1.60
2024-01-05T13:10:49.245Z,1.65
2024-01-05T13:12:51.277Z,2.05
2024-01-05T13:14:53.071Z,1.73
2024-01-05T13:16:54.843Z,1.97
2024-01-05T13:18:56.695Z,2.00
2024-01-05T13:20:59.047Z,2.53
2024-01-05T13:23:00.879Z,2.90
2024-01-05T13:25:02.690Z,2.63
2024-01-05T13:27:06.692Z,2.90
2024-01-05T13:29:08.501Z,2.72
2024-01-05T13:31:10.695Z,2.53
2024-01-05T13:33:14.496Z,2.60
2024-01-05T13:35:16.764Z,2.75
2024-01-05T13:37:18.589Z,3.00
2024-01-05T13:39:20.359Z,2.80
2024-01-05T13:41:22.190Z,2.72
2024-01-05T13:43:26.115Z,2.77
2024-01-05T13:45:28.419Z,2.70
2024-01-05T13:47:30.297Z,2.97
2024-01-05T13:49:33.899Z,2.73
2024-01-05T13:51:35.969Z,2.95
2024-01-05T13:53:37.792Z,2.58
2024-01-05T13:55:39.711Z,3.30
2024-01-05T13:57:41.775Z,4.45
2024-01-05T13:59:43.689Z,4.13
2024-01-05T14:01:45.778Z,4.03
2024-01-05T14:03:47.638Z,3.20
2024-01-05T14:05:52.454Z,3.25
2024-01-05T14:07:58.529Z,3.00
2024-01-05T14:10:03.061Z,3.63
2024-01-05T14:12:06.205Z,2.88
2024-01-05T14:14:08.038Z,2.15
2024-01-05T14:16:09.867Z,2.60
2024-01-05T14:18:11.806Z,2.45
2024-01-05T14:20:14.029Z,2.50
2024-01-05T14:22:15.924Z,3.03
2024-01-05T14:24:17.704Z,2.50
2024-01-05T14:26:19.655Z,2.70
2024-01-05T14:28:21.483Z,2.33
2024-01-05T14:30:23.271Z,2.63
2024-01-05T14:32:25.147Z,3.43
2024-01-05T14:34:27.978Z,4.13
2024-01-05T14:36:29.882Z,3.80
2024-01-05T14:38:32.176Z,3.73
2024-01-05T14:40:33.967Z,3.58
2024-01-05T14:42:35.849Z,3.57
2024-01-05T14:44:37.749Z,3.72
2024-01-05T14:46:40.025Z,3.55
2024-01-05T14:48:42.990Z,3.60
2024-01-05T14:50:44.875Z,3.08
2024-01-05T14:52:55.471Z,3.20
2024-01-05T14:55:02.552Z,2.83
2024-01-05T14:59:06.207Z,3.05
2024-01-05T15:01:10.036Z,3.70
2024-01-05T15:03:12.009Z,2.78
2024-01-05T15:05:14.037Z,4.00
2024-01-05T15:07:15.957Z,3.72
2024-01-05T15:09:17.923Z,3.65
2024-01-05T15:11:21.049Z,3.25
2024-01-05T15:13:22.872Z,3.28
2024-01-05T15:15:24.835Z,2.90
2024-01-05T15:17:26.689Z,2.85
2024-01-05T15:19:29.336Z,2.42
2024-01-05T15:23:33.568Z,2.63
2024-01-05T15:25:35.363Z,2.60
2024-01-05T15:27:37.189Z,2.63
2024-01-05T15:29:41.792Z,2.43
2024-01-05T15:31:43.782Z,2.50
2024-01-05T15:33:45.631Z,2.85
2024-01-05T15:35:47.753Z,3.27
2024-01-05T15:37:49.539Z,3.03
2024-01-05T15:39:54.093Z,3.03
2024-01-05T15:41:56.732Z,3.13
2024-01-05T15:43:58.731Z,2.30
2024-01-05T15:46:00.473Z,2.58
2024-01-05T15:48:02.572Z,2.87
2024-01-05T15:50:04.931Z,2.45
2024-01-05T15:52:06.803Z,2.50
2024-01-05T15:54:09.111Z,2.47
2024-01-05T15:56:11.298Z,2.58
2024-01-05T15:58:13.130Z,2.78
2024-01-05T16:00:15.615Z,2.70
2024-01-05T16:02:17.452Z,4.05
2024-01-05T16:04:19.344Z,4.07
2024-01-05T16:06:21.515Z,3.93
2024-01-05T16:08:23.333Z,3.95
2024-01-05T16:10:25.431Z,3.20
2024-01-05T16:12:27.259Z,3.40
2024-01-05T16:14:29.030Z,4.10
2024-01-05T16:16:31.063Z,3.27
2024-01-05T16:18:33.007Z,3.38
2024-01-05T16:20:34.764Z,3.47
2024-01-05T16:22:36.535Z,3.25
2024-01-05T16:24:38.364Z,3.10
2024-01-05T16:26:40.261Z,3.22
2024-01-05T16:28:43.221Z,3.58
2024-01-05T16:30:45.151Z,3.90
2024-01-05T16:32:47.273Z,3.25
2024-01-05T16:34:49.213Z,3.83
2024-01-05T16:36:51.195Z,3.78
2024-01-05T16:38:53.006Z,3.30
2024-01-05T16:40:54.974Z,3.80
2024-01-05T16:42:56.701Z,3.80
2024-01-05T16:44:58.507Z,2.90
2024-01-05T16:47:00.253Z,3.43
2024-01-05T16:49:02.161Z,3.25
2024-01-05T16:51:04.103Z,3.63
2024-01-05T16:53:07.284Z,3.47
2024-01-05T16:55:09.248Z,3.25
2024-01-05T16:57:11.064Z,3.65
2024-01-05T16:59:12.910Z,3.58
2024-01-05T17:01:14.724Z,3.10
2024-01-05T17:03:16.642Z,3.60
2024-01-05T17:05:18.476Z,3.70
2024-01-05T17:07:20.259Z,3.03
2024-01-05T17:09:22.127Z,4.07
2024-01-05T17:11:26.480Z,3.40
2024-01-05T17:13:28.602Z,3.05
2024-01-05T17:15:31.864Z,3.65
2024-01-05T17:17:34.855Z,3.75
2024-01-05T17:19:36.894Z,3.63
2024-01-05T17:21:41.661Z,3.83
2024-01-05T17:23:43.572Z,4.15
2024-01-05T17:25:45.355Z,3.53
2024-01-05T17:27:47.124Z,3.72
2024-01-05T17:29:49.445Z,3.30
2024-01-05T17:31:51.718Z,3.50
2024-01-05T17:33:53.557Z,3.97
2024-01-05T17:35:58.923Z,4.40
2024-01-05T17:38:00.690Z,4.57
2024-01-05T17:40:04.690Z,4.43
2024-01-05T17:42:07.711Z,3.92
2024-01-05T17:44:10.044Z,3.83
2024-01-05T17:46:11.799Z,4.15
2024-01-05T17:48:14.032Z,4.40
2024-01-05T17:50:16.974Z,3.70
2024-01-05T17:52:20.101Z,3.80
2024-01-05T17:54:21.908Z,3.70
2024-01-05T17:56:25.340Z,4.27
2024-01-05T17:58:27.197Z,3.90
2024-01-05T18:00:29.927Z,4.32
2024-01-05T18:02:31.695Z,4.25
2024-01-05T18:04:33.675Z,4.00
2024-01-05T18:06:35.616Z,4.32
2024-01-05T18:08:38.049Z,4.00
2024-01-05T18:10:39.910Z,3.55
2024-01-05T18:12:44.016Z,4.22
2024-01-05T18:14:46.285Z,4.00
2024-01-05T18:16:48.213Z,3.92
2024-01-05T18:18:50.389Z,3.83
2024-01-05T18:20:52.173Z,3.22
2024-01-05T18:22:53.921Z,3.97
2024-01-05T18:24:55.726Z,3.60
2024-01-05T18:26:57.555Z,4.63
2024-01-05T18:29:03.957Z,4.50
2024-01-05T18:31:11.117Z,4.88
2024-01-05T18:33:13.067Z,4.53
2024-01-05T18:35:15.026Z,4.85
2024-01-05T18:37:17.196Z,5.90
2024-01-05T18:39:19.041Z,5.03
2024-01-05T18:41:20.917Z,5.65
2024-01-05T18:43:23.036Z,5.80
2024-01-05T18:45:24.907Z,5.57
2024-01-05T18:47:28.037Z,5.15
2024-01-05T18:49:30.091Z,5.38
2024-01-05T18:51:31.891Z,5.38
2024-01-05T18:53:33.696Z,5.40
2024-01-05T18:55:35.476Z,5.47
2024-01-05T18:57:37.204Z,6.23
2024-01-05T18:59:38.930Z,5.80
2024-01-05T19:01:42.452Z,5.80
2024-01-05T19:03:45.034Z,5.38
2024-01-05T19:05:46.855Z,5.93
2024-01-05T19:07:48.621Z,5.97
2024-01-05T19:09:50.702Z,5.90
2024-01-05T19:11:52.685Z,5.18
2024-01-05T19:13:54.541Z,6.05
2024-01-05T19:15:56.264Z,5.90
2024-01-05T19:17:58.207Z,5.47
2024-01-05T19:20:00.157Z,5.10
2024-01-05T19:22:02.013Z,5.40
2024-01-05T19:24:04.063Z,5.40
2024-01-05T19:26:05.925Z,5.25
2024-01-05T19:28:07.758Z,5.47
2024-01-05T19:30:10.233Z,5.13
2024-01-05T19:32:12.162Z,5.43
2024-01-05T19:34:14.189Z,5.47
2024-01-05T19:36:17.419Z,5.25
2024-01-05T19:38:19.470Z,5.22
2024-01-05T19:40:21.274Z,4.90
2024-01-05T19:42:25.646Z,5.27
2024-01-05T19:44:27.426Z,5.85
2024-01-05T19:46:30.122Z,6.10
2024-01-05T19:50:34.988Z,5.60
2024-01-05T19:52:37.025Z,5.43
2024-01-05T19:54:39.366Z,5.80
2024-01-05T19:56:41.181Z,5.30
2024-01-05T19:58:43.219Z,5.43
2024-01-05T20:00:45.143Z,4.97
2024-01-05T20:02:47.170Z,5.28
2024-01-05T20:04:50.922Z,6.25
2024-01-05T20:06:53.741Z,6.65
2024-01-05T20:08:55.733Z,7.13
2024-01-05T20:10:58.623Z,6.47
2024-01-05T20:13:00.385Z,7.38
2024-01-05T20:15:02.228Z,6.87
2024-01-05T20:17:04.253Z,7.20
2024-01-05T20:19:08.012Z,7.47
2024-01-05T20:21:16.662Z,7.97
2024-01-05T20:23:19.779Z,8.23
2024-01-05T20:25:21.567Z,7.85
2024-01-05T20:27:23.386Z,7.67
2024-01-05T20:29:25.154Z,8.77
2024-01-05T20:31:27.550Z,8.40
2024-01-05T20:33:30.759Z,10.40
2024-01-05T20:35:32.640Z,10.20
2024-01-05T20:37:34.521Z,9.63
2024-01-05T20:39:36.323Z,9.13
2024-01-05T20:41:38.917Z,7.90
2024-01-05T20:45:47.734Z,6.85
2024-01-05T20:47:49.843Z,7.13
2024-01-05T20:49:51.745Z,7.30
2024-01-05T20:51:55.846Z,7.72
2024-01-05T20:53:58.764Z,6.30
2024-01-05T20:56:00.593Z,5.82
2024-01-05T20:58:02.380Z,6.03
2024-01-05T21:00:06.222Z,7.73
2024-01-05T21:02:08.139Z,8.25
2024-01-05T21:04:12.378Z,6.63
2024-01-05T21:06:16.323Z,5.50
2024-01-05T21:08:18.129Z,4.40
2024-01-05T21:10:20.256Z,4.20
2024-01-05T21:12:22.865Z,3.72
2024-01-05T21:16:27.847Z,4.13
2024-01-05T21:18:29.799Z,4.35
2024-01-05T21:20:31.825Z,4.03
2024-01-05T21:22:36.193Z,4.50
2024-01-05T21:24:42.315Z,4.43
2024-01-05T21:26:45.753Z,4.68
2024-01-05T21:28:47.748Z,4.95
2024-01-05T21:30:49.652Z,4.67
2024-01-05T21:32:53.028Z,4.55
2024-01-05T21:34:57.756Z,4.68
2024-01-05T21:36:59.573Z,4.88
2024-01-05T21:39:02.568Z,5.60
2024-01-05T21:41:04.720Z,4.18
2024-01-05T21:43:07.105Z,4.57
2024-01-05T21:45:09.294Z,5.60
2024-01-05T21:47:11.431Z,5.45
2024-01-05T21:49:13.280Z,5.60
2024-01-05T21:51:15.419Z,5.32
2024-01-05T21:53:17.433Z,5.22
2024-01-05T21:55:19.207Z,5.53
2024-01-05T21:57:20.971Z,5.03
2024-01-05T21:59:23.666Z,5.50
2024-01-05T22:01:25.577Z,6.20
2024-01-05T22:03:27.490Z,5.90
2024-01-05T22:05:29.715Z,6.57
2024-01-05T22:07:31.447Z,7.85
2024-01-05T22:09:33.437Z,6.40
2024-01-05T22:11:40.595Z,7.10
2024-01-05T22:13:43.152Z,6.50
2024-01-05T22:15:45.052Z,6.15
2024-01-05T22:17:46.988Z,5.43
2024-01-05T22:19:48.938Z,5.53
2024-01-05T22:21:50.805Z,5.70
2024-01-05T22:23:52.633Z,6.20
2024-01-05T22:25:54.421Z,5.90
2024-01-05T22:27:56.382Z,5.60
2024-01-05T22:29:58.185Z,6.00
2024-01-05T22:32:00.065Z,6.13
2024-01-05T22:34:02.229Z,5.65
2024-01-05T22:36:12.788Z,5.35
2024-01-05T22:38:16.170Z,5.38
2024-01-05T22:40:18.430Z,6.60
2024-01-05T22:42:20.224Z,5.65
2024-01-05T22:44:23.160Z,5.50
2024-01-05T22:46:24.913Z,5.68
2024-01-05T22:48:32.958Z,6.27
2024-01-05T22:50:37.679Z,6.00
2024-01-05T22:52:39.907Z,5.23
2024-01-05T22:54:41.804Z,5.40
2024-01-05T22:56:47.299Z,5.47
2024-01-05T22:58:49.130Z,5.53
2024-01-05T23:00:51.023Z,6.43
2024-01-05T23:02:52.820Z,5.47
2024-01-05T23:04:54.681Z,5.30
2024-01-05T23:06:57.992Z,5.53
2024-01-05T23:08:59.907Z,5.20
2024-01-05T23:11:01.649Z,5.17
2024-01-05T23:13:05.496Z,5.10
2024-01-05T23:15:08.064Z,4.40
2024-01-05T23:19:11.636Z,5.00
2024-01-05T23:21:13.492Z,5.20
2024-01-05T23:23:15.544Z,5.20
2024-01-05T23:25:17.312Z,5.25
2024-01-05T23:27:19.200Z,5.00
2024-01-05T23:29:21.032Z,5.78
2024-01-05T23:31:23.087Z,5.73
2024-01-05T23:33:25.000Z,5.65
2024-01-05T23:35:27.142Z,5.82
2024-01-05T23:37:31.853Z,6.05
2024-01-05T23:39:33.662Z,5.95
2024-01-05T23:41:37.219Z,5.07
2024-01-05T23:43:39.401Z,6.22
2024-01-05T23:45:41.190Z,5.70
2024-01-05T23:47:43.036Z,5.43
2024-01-05T23:49:44.836Z,5.40
2024-01-05T23:51:46.731Z,6.07
2024-01-05T23:53:48.523Z,6.40
2024-01-05T23:55:50.316Z,4.83
2024-01-05T23:57:52.228Z,5.13
2024-01-05T23:59:54.042Z,5.60
